Time;durP1;ratioP1;P1;durP2;ratioP2;P2;SDS_P1;SDS_P2;PMS_P1;PMS_P2;Temp;Humidity;BMP_temperature;BMP_pressure;BME280_temperature;BME280_humidity;BME280_pressure;Samples;Min_cycle;Max_cycle;Signal;HPM_P1;HPM_P2
2022/10/03 00:02:14;;;;;;;0.80;0.80;;;;;;;10.14;100.00;98148.87;1686337;82;21581;-58
2022/10/03 00:05:04;;;;;;;1.50;1.00;;;;;;;10.12;100.00;98144.19;1692149;82;21862;-58
2022/10/03 00:07:53;;;;;;;0.88;0.88;;;;;;;10.15;100.00;98136.09;1708296;81;21494;-58
2022/10/03 00:10:48;;;;;;;1.37;0.90;;;;;;;10.16;100.00;98144.36;1646209;85;21621;-57
2022/10/03 00:13:33;;;;;;;1.20;1.07;;;;;;;10.17;100.00;98148.69;1650145;85;21493;-61
2022/10/03 00:16:17;;;;;;;1.25;1.15;;;;;;;10.11;100.00;98139.86;1668673;83;21531;-58
2022/10/03 00:19:02;;;;;;;3.00;1.25;;;;;;;10.09;100.00;98146.52;1641401;86;21873;-61
2022/10/03 00:21:51;;;;;;;1.50;1.40;;;;;;;10.13;100.00;98143.23;1648921;85;21063;-58
2022/10/03 00:24:24;;;;;;;1.10;1.10;;;;;;;10.20;100.00;98138.44;1634292;86;21584;-59
2022/10/03 00:27:00;;;;;;;1.65;1.55;;;;;;;10.21;100.00;98140.97;1649970;85;21494;-59
2022/10/03 00:29:57;;;;;;;1.47;1.37;;;;;;;10.24;100.00;98132.87;1659171;85;21473;-58
2022/10/03 00:32:40;;;;;;;2.35;1.87;;;;;;;10.29;100.00;98134.73;1633609;86;21996;-57
2022/10/03 00:35:30;;;;;;;2.40;1.85;;;;;;;10.29;100.00;98127.33;1651366;85;21581;-59
2022/10/03 00:38:27;;;;;;;1.67;1.57;;;;;;;10.31;100.00;98120.22;1668373;83;21476;-58
2022/10/03 00:41:16;;;;;;;1.90;1.70;;;;;;;10.32;100.00;98120.57;1635801;85;21448;-58
2022/10/03 00:43:57;;;;;;;2.85;1.90;;;;;;;10.31;100.00;98121.53;1644873;85;21014;-58
2022/10/03 00:46:44;;;;;;;1.32;1.30;;;;;;;10.32;100.00;98120.13;1626611;85;21758;-58
2022/10/03 00:49:31;;;;;;;1.90;1.60;;;;;;;10.26;100.00;98117.02;1650937;86;21658;-58
2022/10/03 00:52:17;;;;;;;;;;;;;;;10.27;100.00;98121.34;1656781;84;21541;-58
2022/10/03 00:55:05;;;;;;;1.75;1.65;;;;;;;10.27;100.00;98115.61;1656563;84;20413;-58
2022/10/03 00:57:58;;;;;;;2.22;1.70;;;;;;;10.27;100.00;98114.77;1653520;84;21085;-58
2022/10/03 01:00:28;;;;;;;2.45;2.12;;;;;;;10.29;100.00;98111.09;1646032;85;21875;-58
2022/10/03 01:03:09;;;;;;;2.30;2.10;;;;;;;10.28;100.00;98109.88;1653187;84;21475;-59
2022/10/03 01:05:56;;;;;;;2.27;2.08;;;;;;;10.30;100.00;98114.55;1650200;84;21164;-58
2022/10/03 01:08:38;;;;;;;3.42;2.02;;;;;;;10.33;100.00;98110.45;1646263;84;21550;-59
2022/10/03 01:11:24;;;;;;;6.87;2.25;;;;;;;10.30;100.00;98106.67;1645600;84;21637;-58
2022/10/03 01:14:18;;;;;;;1.90;1.80;;;;;;;10.37;100.00;98103.20;1642910;84;22063;-60
2022/10/03 01:16:59;;;;;;;1.95;1.85;;;;;;;10.34;100.00;98104.27;1655703;85;21566;-58
2022/10/03 01:20:00;;;;;;;2.08;1.87;;;;;;;10.35;100.00;98110.35;1649394;84;21452;-59
2022/10/03 01:22:53;;;;;;;4.50;2.00;;;;;;;10.32;100.00;98104.36;1608959;85;21516;-59
2022/10/03 01:25:37;;;;;;;1.90;1.80;;;;;;;10.34;100.00;98102.95;1651177;84;21703;-58
2022/10/03 01:31:10;;;;;;;2.15;1.80;;;;;;;10.44;100.00;98093.98;1641473;84;21622;-59
2022/10/03 01:33:46;;;;;;;2.02;1.80;;;;;;;10.47;100.00;98102.50;1636698;85;21179;-59
2022/10/03 01:36:27;;;;;;;3.75;2.00;;;;;;;10.52;100.00;98099.07;1648296;84;21538;-59
2022/10/03 01:41:03;;;;;;;2.25;1.92;;;;;;;9.97;100.00;98111.88;1776816;78;23263;-59
2022/10/03 01:43:55;;;;;;;1.82;1.72;;;;;;;10.48;100.00;98109.91;1741134;80;21573;-57
2022/10/03 01:46:52;;;;;;;1.80;1.70;;;;;;;10.53;100.00;98101.25;1709310;83;21750;-60
2022/10/03 01:49:49;;;;;;;2.00;1.90;;;;;;;10.53;100.00;98097.31;1701596;83;21568;-61
2022/10/03 01:52:47;;;;;;;3.65;2.10;;;;;;;10.55;100.00;98099.81;1711038;83;21514;-58
2022/10/03 01:55:23;;;;;;;1.98;1.87;;;;;;;10.58;100.00;98107.50;1706975;83;21514;-58
2022/10/03 01:58:02;;;;;;;2.42;2.22;;;;;;;10.59;100.00;98111.83;1705479;83;21667;-59
2022/10/03 02:00:58;;;;;;;5.03;1.98;;;;;;;10.58;100.00;98104.87;1704068;83;21927;-59
2022/10/03 02:03:32;;;;;;;3.50;2.60;;;;;;;10.55;100.00;98107.69;1697611;83;21562;-60
2022/10/03 02:06:22;;;;;;;2.50;2.30;;;;;;;10.51;100.00;98100.03;1711233;82;21084;-58
2022/10/03 02:09:29;;;;;;;2.22;2.02;;;;;;;10.54;100.00;98103.40;1704316;83;21521;-59
2022/10/03 02:12:10;;;;;;;3.40;2.92;;;;;;;10.52;100.00;98099.55;1675004;83;21490;-58
2022/10/03 02:15:13;;;;;;;2.80;2.60;;;;;;;10.56;100.00;98098.88;1685445;83;21803;-59
2022/10/03 02:18:01;;;;;;;2.20;2.10;;;;;;;10.52;100.00;98099.07;1696199;83;21514;-58
2022/10/03 02:20:55;;;;;;;3.47;2.67;;;;;;;10.48;100.00;98090.20;1688295;83;21436;-59
2022/10/03 02:23:36;;;;;;;2.52;2.37;;;;;;;10.49;100.00;98098.44;1693154;83;21546;-59
2022/10/03 02:26:17;;;;;;;2.77;2.58;;;;;;;10.44;100.00;98094.81;1695250;83;21522;-59
2022/10/03 02:28:56;;;;;;;2.50;2.30;;;;;;;10.50;100.00;98094.39;1702110;83;21831;-58
2022/10/03 02:31:55;;;;;;;2.77;2.10;;;;;;;10.57;100.00;98087.41;1698211;83;21061;-59
2022/10/03 02:34:40;;;;;;;2.62;2.42;;;;;;;10.56;100.00;98092.30;1632214;85;21088;-59
2022/10/03 02:37:55;;;;;;;3.10;2.42;;;;;;;10.55;100.00;98085.35;1701580;82;21475;-59
2022/10/03 02:40:57;;;;;;;3.20;2.30;;;;;;;10.54;100.00;98079.27;1699140;82;21594;-58
2022/10/03 02:43:41;;;;;;;3.15;1.90;;;;;;;10.55;100.00;98084.04;1693555;82;21873;-58
2022/10/03 02:46:39;;;;;;;2.40;2.05;;;;;;;10.52;100.00;98090.36;1689847;82;21086;-59
2022/10/03 02:49:32;;;;;;;2.95;2.20;;;;;;;10.51;100.00;98089.52;1693956;82;21491;-59
2022/10/03 02:52:31;;;;;;;2.40;2.30;;;;;;;10.54;100.00;98079.75;1694523;83;21535;-59
2022/10/03 02:55:26;;;;;;;1.92;1.82;;;;;;;10.50;100.00;98083.88;1692678;82;21436;-59
2022/10/03 02:58:18;;;;;;;2.83;1.80;;;;;;;10.54;100.00;98086.31;1683205;83;21859;-60
2022/10/03 03:01:24;;;;;;;4.22;2.15;;;;;;;10.51;100.00;98079.49;1700957;83;21581;-59
2022/10/03 03:04:00;;;;;;;3.37;1.70;;;;;;;10.50;100.00;98073.37;1701164;82;22984;-61
2022/10/03 03:06:51;;;;;;;2.02;1.82;;;;;;;10.55;100.00;98072.21;1692965;82;21546;-59
2022/10/03 03:09:46;;;;;;;1.60;1.50;;;;;;;10.60;100.00;98072.75;1680708;82;21538;-60
2022/10/03 03:12:27;;;;;;;1.82;1.50;;;;;;;10.60;100.00;98074.06;1690489;83;22213;-60
2022/10/03 03:15:11;;;;;;;1.60;1.50;;;;;;;10.64;100.00;98078.16;1695244;83;21559;-60
2022/10/03 03:18:15;;;;;;;1.37;1.25;;;;;;;10.59;100.00;98087.69;1689296;83;21432;-60
2022/10/03 03:21:23;;;;;;;1.95;1.80;;;;;;;10.52;100.00;98089.88;1690180;83;21594;-60
2022/10/03 03:24:04;;;;;;;4.15;1.62;;;;;;;10.50;100.00;98077.31;1689321;83;21483;-58
2022/10/03 03:27:01;;;;;;;1.87;1.62;;;;;;;10.48;100.00;98084.94;1681038;83;21969;-59
2022/10/03 03:29:58;;;;;;;3.33;2.10;;;;;;;10.43;100.00;98072.09;1673045;84;20959;-59
2022/10/03 03:32:33;;;;;;;3.50;2.00;;;;;;;10.39;100.00;98079.82;1675437;84;22018;-59
2022/10/03 03:35:27;;;;;;;2.20;2.00;;;;;;;10.38;100.00;98068.09;1687436;84;21439;-58
2022/10/03 03:38:26;;;;;;;2.02;1.92;;;;;;;10.41;100.00;98067.42;1675624;83;21597;-59
2022/10/03 03:41:32;;;;;;;2.25;2.00;;;;;;;10.43;100.00;98072.58;1683554;84;21809;-59
2022/10/03 03:44:05;;;;;;;2.58;2.25;;;;;;;10.41;100.00;98070.05;1679081;84;21577;-59
2022/10/03 03:47:13;;;;;;;2.37;1.90;;;;;;;10.43;100.00;98072.58;1674033;84;21009;-59
2022/10/03 03:50:09;;;;;;;2.52;2.10;;;;;;;10.42;100.00;98071.75;1675489;84;21507;-57
2022/10/03 03:53:01;;;;;;;3.02;2.10;;;;;;;10.50;100.00;98072.54;1683334;84;21453;-58
2022/10/03 03:56:06;;;;;;;3.27;2.17;;;;;;;10.46;100.00;98076.33;1679628;84;21790;-59
2022/10/03 03:58:50;;;;;;;2.50;2.30;;;;;;;10.44;100.00;98073.80;1679818;84;20967;-58
2022/10/03 04:01:30;;;;;;;2.20;2.10;;;;;;;10.45;100.00;98071.55;1681847;84;21503;-60
2022/10/03 04:04:34;;;;;;;2.12;1.90;;;;;;;10.51;100.00;98078.18;1679984;84;21447;-59
2022/10/03 04:07:53;;;;;;;2.80;2.10;;;;;;;10.48;100.00;98063.92;1682147;84;21578;-59
2022/10/03 04:10:42;;;;;;;2.25;2.05;;;;;;;10.49;100.00;98073.02;1683365;83;21388;-59
2022/10/03 04:13:37;;;;;;;1.85;1.75;;;;;;;10.54;100.00;98065.30;1673853;84;21601;-58
2022/10/03 04:16:15;;;;;;;2.45;2.17;;;;;;;10.58;100.00;98053.62;1663824;84;21550;-59
2022/10/03 04:18:58;;;;;;;2.08;1.98;;;;;;;10.60;100.00;98063.55;1681323;84;21114;-58
2022/10/03 04:21:42;;;;;;;2.60;1.77;;;;;;;10.62;100.00;98068.23;1641302;84;21510;-60
2022/10/03 04:24:20;;;;;;;2.55;2.22;;;;;;;10.69;100.00;98073.44;1681958;83;21809;-59
2022/10/03 04:27:29;;;;;;;2.40;2.10;;;;;;;10.70;100.00;98074.66;1704501;82;21566;-60
2022/10/03 04:30:19;;;;;;;2.30;2.10;;;;;;;10.77;100.00;98071.60;1694830;81;21017;-58
2022/10/03 04:33:17;;;;;;;1.95;1.85;;;;;;;10.86;100.00;98073.13;1702221;82;21009;-58
2022/10/03 04:36:40;;;;;;;2.37;2.17;;;;;;;10.88;100.00;98070.39;1693590;82;21526;-60
2022/10/03 04:39:28;;;;;;;2.65;1.75;;;;;;;10.90;100.00;98066.70;1702755;82;21808;-59
2022/10/03 04:42:15;;;;;;;2.10;2.00;;;;;;;10.95;100.00;98068.19;1700431;83;21554;-60
2022/10/03 04:45:07;;;;;;;2.15;1.95;;;;;;;11.02;100.00;98064.16;1703672;82;21510;-61
2022/10/03 04:47:54;;;;;;;2.12;1.90;;;;;;;11.09;100.00;98062.79;1654706;84;21614;-60
2022/10/03 04:50:29;;;;;;;2.10;2.00;;;;;;;11.01;100.00;98054.12;1644473;85;21594;-59
2022/10/03 04:53:24;;;;;;;2.22;2.02;;;;;;;11.00;100.00;98046.34;1650421;86;21839;-59
2022/10/03 04:55:59;;;;;;;2.90;1.80;;;;;;;11.02;100.00;98048.38;1645036;84;21003;-60
2022/10/03 04:58:41;;;;;;;1.82;1.70;;;;;;;11.08;100.00;98053.23;1628072;85;21574;-61
2022/10/03 05:01:29;;;;;;;2.10;2.00;;;;;;;11.07;100.00;98048.42;1649860;84;21587;-61
2022/10/03 05:04:20;;;;;;;2.45;2.15;;;;;;;11.08;100.00;98036.14;1645675;84;21507;-61
2022/10/03 05:07:15;;;;;;;1.80;1.70;;;;;;;11.03;100.00;98044.34;1649890;84;21864;-60
2022/10/03 05:09:59;;;;;;;2.10;1.70;;;;;;;11.17;100.00;98037.27;1654150;84;21653;-60
2022/10/03 05:12:55;;;;;;;2.55;1.60;;;;;;;11.29;100.00;98034.61;1683568;84;21499;-60
2022/10/03 05:15:35;;;;;;;3.42;1.47;;;;;;;11.36;100.00;98040.28;1677233;84;21523;-62
2022/10/03 05:18:52;;;;;;;6.72;1.70;;;;;;;11.45;100.00;98043.58;1684686;84;21432;-60
2022/10/03 05:21:54;;;;;;;2.80;1.60;;;;;;;11.62;100.00;98041.05;1677620;84;21759;-61
2022/10/03 05:24:44;;;;;;;4.10;1.72;;;;;;;11.73;100.00;98051.26;1680957;84;20946;-61
2022/10/03 05:27:29;;;;;;;3.17;1.70;;;;;;;11.79;100.00;98052.11;1656243;84;21058;-62
2022/10/03 05:30:17;;;;;;;3.65;2.05;;;;;;;11.91;100.00;98050.44;1679263;84;21515;-62
2022/10/03 05:32:56;;;;;;;3.58;1.42;;;;;;;12.03;100.00;98046.39;1679270;84;21578;-61
2022/10/03 05:35:34;;;;;;;2.27;1.50;;;;;;;12.16;100.00;98044.17;1674532;84;21793;-61
2022/10/03 05:38:27;;;;;;;2.87;1.50;;;;;;;12.22;100.00;98047.66;1669371;84;21466;-62
2022/10/03 05:41:18;;;;;;;4.47;1.35;;;;;;;12.31;100.00;98048.29;1685323;83;21559;-62
2022/10/03 05:44:02;;;;;;;4.08;1.22;;;;;;;12.37;100.00;98056.21;1687222;84;21488;-61
2022/10/03 05:46:54;;;;;;;3.45;1.40;;;;;;;12.46;100.00;98062.11;1676517;84;21467;-62
2022/10/03 05:49:44;;;;;;;2.20;1.37;;;;;;;12.47;100.00;98050.63;1681206;84;22011;-61
2022/10/03 05:52:25;;;;;;;4.55;1.55;;;;;;;12.50;100.00;98054.81;1681665;84;21516;-61
2022/10/03 05:55:13;;;;;;;2.35;1.40;;;;;;;12.51;100.00;98052.06;1679615;84;21549;-62
2022/10/03 05:58:13;;;;;;;4.10;1.57;;;;;;;12.60;100.00;98063.23;1681487;84;21633;-61
2022/10/03 06:01:04;;;;;;;5.30;1.27;;;;;;;12.61;100.00;98050.87;1682839;84;21597;-61
2022/10/03 06:04:20;;;;;;;5.45;1.87;;;;;;;12.63;100.00;98047.16;1682008;84;21448;-61
2022/10/03 06:07:11;;;;;;;5.05;1.30;;;;;;;12.62;100.00;98051.22;1683606;84;21019;-65
2022/10/03 06:09:43;;;;;;;2.62;1.20;;;;;;;12.61;100.00;98057.47;1626594;86;21487;-61
2022/10/03 06:12:30;;;;;;;2.85;1.50;;;;;;;12.66;100.00;98059.29;1688423;83;21613;-61
2022/10/03 06:15:38;;;;;;;5.10;1.40;;;;;;;12.57;100.00;98063.94;1648008;86;21500;-61
2022/10/03 06:18:22;;;;;;;2.80;1.47;;;;;;;12.65;100.00;98052.32;1603221;87;21981;-63
2022/10/03 06:21:18;;;;;;;3.20;1.55;;;;;;;12.75;100.00;98058.58;1610866;87;21048;-63
2022/10/03 06:24:25;;;;;;;2.45;1.20;;;;;;;12.81;100.00;98051.52;1670975;83;21034;-64
2022/10/03 06:27:02;;;;;;;;;;;;;;;12.88;100.00;98045.75;1691894;83;21578;-63
2022/10/03 06:30:10;;;;;;;4.70;1.10;;;;;;;12.98;100.00;98052.01;1674096;84;20418;-65
2022/10/03 06:33:15;;;;;;;2.65;1.20;;;;;;;13.10;100.00;98048.39;1676844;83;27286;-62
2022/10/03 06:36:09;;;;;;;2.15;1.10;;;;;;;13.18;100.00;98057.02;1687458;84;21559;-62
2022/10/03 06:38:51;;;;;;;4.00;1.42;;;;;;;13.34;100.00;98060.66;1678078;84;21535;-62
2022/10/03 06:42:03;;;;;;;2.37;1.10;;;;;;;13.38;100.00;98060.77;1682933;83;21488;-62
2022/10/03 06:44:54;;;;;;;2.85;1.20;;;;;;;13.43;100.00;98068.68;1687912;84;21559;-63
2022/10/03 06:48:01;;;;;;;3.55;1.90;;;;;;;13.44;100.00;98061.10;1684196;84;21858;-63
2022/10/03 06:50:59;;;;;;;3.20;1.37;;;;;;;13.38;100.00;98085.36;1676478;84;21530;-63
2022/10/03 06:53:50;;;;;;;3.20;1.17;;;;;;;13.28;100.00;98075.15;1684195;84;21510;-62
2022/10/03 06:56:57;;;;;;;3.08;1.22;;;;;;;13.27;100.00;98087.14;1684194;83;21527;-62
2022/10/03 07:00:08;;;;;;;2.10;1.22;;;;;;;13.33;100.00;98088.83;1676858;84;21459;-62
2022/10/03 07:03:12;;;;;;;2.55;1.15;;;;;;;13.40;100.00;98086.56;1681302;84;21774;-63
2022/10/03 07:06:36;;;;;;;2.62;1.32;;;;;;;13.46;100.00;98083.92;1680087;84;21507;-64
2022/10/03 07:09:45;;;;;;;4.20;0.98;;;;;;;13.54;100.00;98082.81;1687465;83;21011;-62
2022/10/03 07:12:35;;;;;;;2.05;1.32;;;;;;;13.60;100.00;98084.50;1685649;83;21107;-62
2022/10/03 07:15:32;;;;;;;4.05;1.35;;;;;;;13.70;100.00;98081.95;1679943;84;21629;-62
2022/10/03 07:18:43;;;;;;;3.20;1.20;;;;;;;13.74;100.00;98087.83;1681826;84;21926;-62
2022/10/03 07:21:41;;;;;;;2.15;1.30;;;;;;;13.81;100.00;98082.42;1680518;84;21520;-62
2022/10/03 07:24:48;;;;;;;3.37;1.42;;;;;;;13.85;100.00;98082.52;1687276;83;21534;-63
2022/10/03 07:27:35;;;;;;;4.95;1.52;;;;;;;13.72;100.00;98083.98;1687899;83;21533;-63
2022/10/03 07:30:16;;;;;;;5.30;1.80;;;;;;;13.74;100.00;98079.42;1675428;84;21121;-62
2022/10/03 07:33:07;;;;;;;2.65;1.17;;;;;;;13.64;100.00;98078.49;1681114;84;21805;-62
2022/10/03 07:38:57;;;;;;;3.70;1.12;;;;;;;13.53;100.00;98087.27;1656904;83;21500;-62
2022/10/03 07:41:45;;;;;;;4.28;1.40;;;;;;;13.62;100.00;98100.23;1667183;84;21457;-63
2022/10/03 07:44:57;;;;;;;3.22;1.50;;;;;;;13.61;100.00;98087.97;1684193;83;21545;-62
2022/10/03 07:48:12;;;;;;;5.45;1.20;;;;;;;13.65;100.00;98096.49;1654227;84;21791;-62
2022/10/03 07:51:12;;;;;;;3.20;1.47;;;;;;;13.75;100.00;98091.67;1681725;84;21557;-61
2022/10/03 07:54:11;;;;;;;3.42;1.40;;;;;;;13.86;100.00;98085.99;1724562;80;21574;-60
2022/10/03 07:57:09;;;;;;;2.12;1.17;;;;;;;13.92;100.00;98096.92;1709332;82;21582;-61
2022/10/03 08:00:11;;;;;;;4.30;1.70;;;;;;;13.98;100.00;98085.84;1727113;80;20950;-61
2022/10/03 08:03:11;;;;;;;2.62;1.35;;;;;;;14.02;100.00;98091.23;1693136;82;21555;-61
2022/10/03 08:06:04;;;;;;;5.12;1.55;;;;;;;14.07;100.00;98083.40;1719264;82;21530;-61
2022/10/03 08:09:19;;;;;;;2.17;1.40;;;;;;;14.05;100.00;98089.30;1688047;82;21543;-62
2022/10/03 08:12:06;;;;;;;4.78;1.70;;;;;;;14.16;100.00;98089.25;1712952;82;21455;-62
2022/10/03 08:14:54;;;;;;;3.00;1.40;;;;;;;14.31;100.00;98073.94;1710254;82;21585;-61
2022/10/03 08:17:39;;;;;;;;;;;;;;;14.41;100.00;98080.98;1722415;81;21820;-61
2022/10/03 08:20:39;;;;;;;3.67;1.25;;;;;;;14.48;100.00;98076.00;1685517;82;20465;-64
2022/10/03 08:23:32;;;;;;;3.85;1.50;;;;;;;14.52;100.00;98083.20;1715470;81;21419;-66
2022/10/03 08:26:20;;;;;;;4.37;1.30;;;;;;;14.51;100.00;98089.47;1717093;81;21525;-63
2022/10/03 08:29:12;;;;;;;2.33;1.20;;;;;;;14.64;100.00;98083.54;1723135;81;21435;-65
2022/10/03 08:32:16;;;;;;;3.75;1.20;;;;;;;14.91;100.00;98100.19;1723175;80;21818;-62
2022/10/03 08:35:22;;;;;;;4.28;1.82;;;;;;;15.03;100.00;98104.94;1690616;82;20982;-63
2022/10/03 08:38:13;;;;;;;3.02;1.37;;;;;;;15.12;100.00;98091.38;1726144;80;21470;-62
2022/10/03 08:41:00;;;;;;;4.92;1.80;;;;;;;15.27;100.00;98085.25;1720290;81;21513;-62
2022/10/03 08:43:57;;;;;;;4.60;1.32;;;;;;;15.31;100.00;98076.92;1702069;82;21032;-63
2022/10/03 08:47:01;;;;;;;2.30;1.20;;;;;;;15.17;100.00;98089.19;1696156;82;21887;-64
2022/10/03 08:49:54;;;;;;;2.80;1.37;;;;;;;15.13;100.00;98077.19;1638618;85;21642;-63
2022/10/03 08:53:04;;;;;;;2.37;1.10;;;;;;;15.01;100.00;98096.76;1642733;85;21621;-64
2022/10/03 08:56:12;;;;;;;2.60;1.40;;;;;;;14.97;100.00;98078.52;1690226;82;21469;-64
2022/10/03 08:59:00;;;;;;;;;;;;;;;14.91;100.00;98082.16;1679506;83;21580;-62
2022/10/03 09:01:51;;;;;;;7.87;1.50;;;;;;;14.88;100.00;98102.25;1683568;83;20739;-61
2022/10/03 09:04:52;;;;;;;4.33;1.67;;;;;;;14.96;100.00;98082.12;1682153;83;21560;-61
2022/10/03 09:07:47;;;;;;;4.53;1.40;;;;;;;15.03;100.00;98092.17;1678257;83;21584;-63
2022/10/03 09:10:22;;;;;;;5.28;1.20;;;;;;;15.14;100.00;98086.79;1668675;83;21490;-62
2022/10/03 09:13:21;;;;;;;4.17;1.60;;;;;;;15.05;100.00;98089.77;1677736;83;21596;-62
2022/10/03 09:16:12;;;;;;;2.50;1.20;;;;;;;15.08;100.00;98090.80;1690699;81;21807;-62
2022/10/03 09:18:51;;;;;;;3.00;1.60;;;;;;;15.22;100.00;98104.66;1692812;83;21473;-61
2022/10/03 09:21:35;;;;;;;2.15;1.40;;;;;;;15.40;100.00;98099.09;1675258;83;21462;-64
2022/10/03 09:24:27;;;;;;;4.00;1.47;;;;;;;15.33;100.00;98101.45;1686591;83;21521;-63
2022/10/03 09:27:38;;;;;;;2.58;1.10;;;;;;;15.31;100.00;98099.89;1684830;83;21458;-62
2022/10/03 09:30:38;;;;;;;2.83;1.50;;;;;;;15.64;100.00;98097.93;1686401;83;21750;-63
2022/10/03 09:33:42;;;;;;;3.72;1.25;;;;;;;15.80;100.00;98108.86;1687304;83;21644;-65
2022/10/03 09:37:05;;;;;;;2.65;1.05;;;;;;;15.83;100.00;98083.42;1677293;83;21076;-64
2022/10/03 09:40:10;;;;;;;1.42;1.10;;;;;;;15.91;100.00;98111.89;1638863;85;21530;-64
2022/10/03 09:42:51;;;;;;;2.52;1.10;;;;;;;15.84;97.42;98100.16;1687225;83;21567;-61
2022/10/03 09:45:54;;;;;;;3.62;1.02;;;;;;;16.00;97.96;98101.79;1641676;84;21800;-63
2022/10/03 09:48:47;;;;;;;2.60;1.10;;;;;;;15.98;96.78;98093.64;1679256;83;21536;-61
2022/10/03 09:51:44;;;;;;;1.62;1.42;;;;;;;16.04;97.59;98091.75;1669726;83;21489;-63
2022/10/03 09:54:44;;;;;;;1.62;1.27;;;;;;;15.96;96.75;98090.63;1637863;82;21171;-62
2022/10/03 09:57:19;;;;;;;1.62;1.05;;;;;;;15.81;96.73;98100.44;1753570;79;21592;-63
2022/10/03 10:00:16;;;;;;;4.05;1.37;;;;;;;15.72;98.26;98104.20;1772990;79;21821;-63
2022/10/03 10:03:12;;;;;;;1.92;1.12;;;;;;;15.69;99.17;98112.45;1768023;79;21013;-60
2022/10/03 10:06:26;;;;;;;2.52;1.07;;;;;;;15.65;99.58;98107.08;1774244;79;20946;-60
2022/10/03 10:09:14;;;;;;;2.98;1.40;;;;;;;15.57;98.80;98114.84;1773180;79;21593;-60
2022/10/03 10:12:22;;;;;;;2.35;1.22;;;;;;;15.52;98.03;98119.23;1766221;80;21486;-61
2022/10/03 10:15:14;;;;;;;6.62;1.55;;;;;;;15.50;98.45;98120.31;1771066;79;22153;-60
2022/10/03 10:18:07;;;;;;;4.37;1.47;;;;;;;15.49;97.44;98113.36;1768828;79;21364;-60
2022/10/03 10:20:48;;;;;;;1.60;1.10;;;;;;;15.47;98.00;98124.08;1764560;80;21529;-60
2022/10/03 10:24:02;;;;;;;1.20;1.10;;;;;;;15.51;98.49;98120.19;1773336;79;21474;-60
2022/10/03 10:26:50;;;;;;;2.83;1.00;;;;;;;15.51;97.92;98123.33;1764982;80;21520;-60
2022/10/03 10:29:34;;;;;;;3.62;1.25;;;;;;;15.36;96.92;98114.91;1765046;79;21790;-60
2022/10/03 10:32:28;;;;;;;2.12;1.00;;;;;;;15.25;96.95;98121.13;1763152;79;21485;-59
2022/10/03 10:35:19;;;;;;;2.27;0.80;;;;;;;15.23;98.16;98136.80;1765369;79;21545;-60
2022/10/03 10:38:24;;;;;;;2.55;1.00;;;;;;;15.14;98.96;98116.77;1758200;79;21395;-60
2022/10/03 10:41:30;;;;;;;1.57;0.95;;;;;;;15.25;99.51;98113.17;1763530;80;21596;-60
2022/10/03 10:44:32;;;;;;;1.73;1.10;;;;;;;15.71;97.07;98109.17;1763922;79;21792;-60
2022/10/03 10:47:56;;;;;;;1.30;0.85;;;;;;;15.71;97.07;98109.17;1775253;78;21529;-60
2022/10/03 10:50:49;;;;;;;3.87;1.80;;;;;;;15.90;96.11;98112.38;1773442;79;21505;-60
2022/10/03 10:53:53;;;;;;;1.65;1.05;;;;;;;15.96;95.08;98114.97;1769448;80;21438;-60
2022/10/03 10:57:04;;;;;;;1.70;1.00;;;;;;;16.00;94.47;98115.05;1766553;79;21549;-60
2022/10/03 11:00:06;;;;;;;3.12;1.62;;;;;;;15.79;94.79;98125.75;1767315;79;21478;-60
2022/10/03 11:03:18;;;;;;;5.45;1.15;;;;;;;15.62;96.76;98129.84;1771223;79;20947;-60
2022/10/03 11:06:29;;;;;;;2.42;0.80;;;;;;;15.37;99.32;98138.61;1766273;79;21442;-61
2022/10/03 11:09:29;;;;;;;2.60;0.90;;;;;;;15.18;100.00;98130.55;1760650;79;21578;-61
2022/10/03 11:12:52;;;;;;;2.08;1.07;;;;;;;15.25;100.00;98126.91;1764246;80;21597;-59
2022/10/03 11:15:53;;;;;;;4.37;1.27;;;;;;;15.25;100.00;98130.39;1761962;79;21894;-60
2022/10/03 11:18:59;;;;;;;3.30;1.02;;;;;;;15.30;100.00;98128.69;1770450;78;21505;-60
2022/10/03 11:21:53;;;;;;;1.70;0.95;;;;;;;15.38;100.00;98127.52;1757706;80;21505;-60
2022/10/03 11:24:34;;;;;;;2.92;1.10;;;;;;;15.36;100.00;98136.92;1769781;79;21017;-60
2022/10/03 11:27:28;;;;;;;3.40;0.90;;;;;;;15.09;100.00;98140.14;1775823;79;21415;-60
2022/10/03 11:34:10;;;;;;;1.87;0.70;;;;;;;14.66;100.00;98146.41;1675002;83;21692;-61
2022/10/03 11:37:10;;;;;;;2.13;0.90;;;;;;;14.54;100.00;98146.92;1675198;83;21532;-60
2022/10/03 11:39:58;;;;;;;1.45;0.80;;;;;;;14.53;100.00;98149.19;1664759;85;21508;-59
2022/10/03 11:42:40;;;;;;;;;;;;;;;14.58;100.00;98140.43;1670061;83;21516;-60
2022/10/03 11:45:18;;;;;;;2.15;0.95;;;;;;;14.56;100.00;98130.89;1672144;83;21730;-60
2022/10/03 11:47:59;;;;;;;2.45;1.15;;;;;;;14.68;100.00;98135.20;1654771;83;21436;-60
2022/10/03 11:50:47;;;;;;;2.12;0.80;;;;;;;14.69;100.00;98140.87;1641635;84;21568;-60
2022/10/03 11:53:37;;;;;;;5.00;0.80;;;;;;;14.78;100.00;98133.45;1673271;83;21547;-59
2022/10/03 11:56:32;;;;;;;5.92;1.10;;;;;;;14.99;100.00;98133.47;1671860;83;21498;-60
2022/10/03 11:59:34;;;;;;;2.35;1.20;;;;;;;15.31;100.00;98125.05;1677600;83;21863;-59
2022/10/03 12:02:21;;;;;;;1.98;0.90;;;;;;;15.55;100.00;98128.20;1617575;83;21527;-61
2022/10/03 12:05:39;;;;;;;3.08;1.40;;;;;;;15.65;100.00;98125.63;1675109;83;21439;-60
2022/10/03 12:11:42;;;;;;;10.25;1.20;;;;;;;16.08;100.00;98119.16;1673932;83;21569;-61
2022/10/03 12:14:28;;;;;;;1.52;1.00;;;;;;;16.31;100.00;98123.74;1670309;83;21750;-59
2022/10/03 12:17:09;;;;;;;3.83;1.35;;;;;;;16.14;100.00;98131.89;1666799;83;21034;-59
2022/10/03 12:20:02;;;;;;;1.87;1.00;;;;;;;15.89;100.00;98131.89;1671047;83;21564;-60
2022/10/03 12:22:45;;;;;;;1.98;1.20;;;;;;;15.88;100.00;98124.94;1675028;83;21481;-59
2022/10/03 12:25:23;;;;;;;4.92;0.88;;;;;;;15.72;100.00;98136.50;1677324;83;21563;-59
2022/10/03 12:27:53;;;;;;;;;;;;;;;15.57;100.00;98142.16;1672546;83;22070;-59
2022/10/03 12:30:20;;;;;;;1.82;1.07;;;;;;;15.60;98.27;98121.20;1675375;83;20222;-59
2022/10/03 12:33:02;;;;;;;1.47;1.12;;;;;;;15.49;100.00;98123.45;1677098;83;21488;-59
2022/10/03 12:35:59;;;;;;;3.33;0.78;;;;;;;15.47;100.00;98140.47;1676035;83;21491;-60
2022/10/03 12:38:52;;;;;;;3.05;0.95;;;;;;;15.50;100.00;98126.47;1685740;83;21000;-61
2022/10/03 12:41:44;;;;;;;1.98;1.30;;;;;;;15.55;100.00;98118.94;1670961;83;22227;-59
2022/10/03 12:44:47;;;;;;;3.47;1.10;;;;;;;15.60;100.00;98130.47;1674615;83;21562;-60
2022/10/03 12:47:28;;;;;;;1.50;0.93;;;;;;;15.57;98.99;98138.68;1612478;86;21615;-59
2022/10/03 12:50:23;;;;;;;0.95;0.80;;;;;;;15.58;98.85;98143.02;1688438;83;21082;-60
2022/10/03 12:53:16;;;;;;;2.70;0.82;;;;;;;15.45;100.00;98130.49;1698232;83;21594;-60
2022/10/03 12:56:07;;;;;;;1.90;1.10;;;;;;;15.32;100.00;98133.36;1689999;83;21805;-61
2022/10/03 12:59:19;;;;;;;1.85;1.12;;;;;;;15.15;100.00;98122.89;1692850;81;21580;-59
2022/10/03 13:02:07;;;;;;;4.42;0.95;;;;;;;15.09;100.00;98137.49;1685421;83;21491;-59
2022/10/03 13:05:13;;;;;;;1.65;0.85;;;;;;;15.01;100.00;98153.17;1660768;84;21486;-59
2022/10/03 13:07:56;;;;;;;1.12;0.70;;;;;;;14.90;100.00;98138.22;1699044;83;21416;-60
2022/10/03 13:10:40;;;;;;;2.98;0.70;;;;;;;14.91;100.00;98145.66;1679263;83;21820;-60
2022/10/03 13:13:29;;;;;;;1.45;0.65;;;;;;;15.13;100.00;98141.55;1667561;83;21542;-60
2022/10/03 13:16:24;;;;;;;4.87;0.88;;;;;;;15.34;100.00;98135.38;1697903;83;21515;-60
2022/10/03 13:19:04;;;;;;;1.30;1.10;;;;;;;15.35;100.00;98137.91;1697524;83;21573;-60
2022/10/03 13:22:21;;;;;;;1.90;0.85;;;;;;;15.30;100.00;98130.01;1695737;83;20993;-60
2022/10/03 13:24:58;;;;;;;;;;;;;;;15.30;100.00;98131.33;1699050;83;22136;-60
2022/10/03 13:27:53;;;;;;;2.47;1.40;;;;;;;15.02;100.00;98133.69;1691734;83;20409;-58
2022/10/03 13:30:30;;;;;;;1.42;0.75;;;;;;;14.91;100.00;98135.08;1694789;83;21661;-59
2022/10/03 13:33:16;;;;;;;1.30;0.80;;;;;;;14.76;100.00;98123.98;1688574;83;20979;-59
2022/10/03 13:36:00;;;;;;;0.95;0.72;;;;;;;14.79;100.00;98140.44;1649403;85;21506;-59
2022/10/03 13:38:51;;;;;;;2.27;0.93;;;;;;;14.93;100.00;98137.11;1671259;83;21741;-59
2022/10/03 13:41:59;;;;;;;0.90;0.60;;;;;;;14.94;100.00;98129.05;1676105;83;21516;-60